createdAt,value
2024-01-11T00:00:00.445Z,1.28
2024-01-11T00:02:28.989Z,1.25
2024-01-11T00:04:57.562Z,1.28
2024-01-11T00:07:25.978Z,0.47
2024-01-11T00:09:55.770Z,1.27
2024-01-11T00:12:24.209Z,1.24
2024-01-11T00:14:52.575Z,1.24
2024-01-11T00:17:21.030Z,1.20
2024-01-11T00:19:50.037Z,1.15
2024-01-11T00:22:18.733Z,1.18
2024-01-11T00:24:47.105Z,1.21
2024-01-11T00:27:16.904Z,1.15
2024-01-11T00:29:45.336Z,1.10
2024-01-11T00:32:13.854Z,0.90
2024-01-11T00:34:42.297Z,1.11
2024-01-11T00:37:10.946Z,1.17
2024-01-11T00:39:39.302Z,1.12
2024-01-11T00:42:07.921Z,0.97
2024-01-11T00:44:37.787Z,1.18
2024-01-11T00:47:06.626Z,1.22
2024-01-11T00:49:35.161Z,1.23
2024-01-11T00:52:03.773Z,1.24
2024-01-11T00:54:32.166Z,1.25
2024-01-11T00:57:00.531Z,1.25
2024-01-11T00:59:28.993Z,1.21
2024-01-11T01:01:59.024Z,1.28
2024-01-11T01:04:27.501Z,1.30
2024-01-11T01:06:56.097Z,0.56
2024-01-11T01:09:24.707Z,1.16
2024-01-11T01:11:53.053Z,1.17
2024-01-11T01:14:21.516Z,1.17
2024-01-11T01:16:49.971Z,1.09
2024-01-11T01:19:19.805Z,1.05
2024-01-11T01:21:48.206Z,0.99
2024-01-11T01:24:16.592Z,1.02
2024-01-11T01:26:45.156Z,0.79
2024-01-11T01:29:14.114Z,1.02
2024-01-11T01:31:42.571Z,1.01
2024-01-11T01:34:11.375Z,1.06
2024-01-11T01:36:41.223Z,1.07
2024-01-11T01:39:09.786Z,1.00
2024-01-11T01:41:38.277Z,1.01
2024-01-11T01:44:06.952Z,0.99
2024-01-11T01:46:36.474Z,0.96
2024-01-11T01:49:06.182Z,1.02
2024-01-11T01:51:35.619Z,1.05
2024-01-11T01:54:06.559Z,0.95
2024-01-11T01:56:35.247Z,1.09
2024-01-11T01:59:04.676Z,1.09
2024-01-11T02:01:33.144Z,0.98
2024-01-11T02:04:02.067Z,1.04
2024-01-11T02:06:33.937Z,1.04
2024-01-11T02:09:05.391Z,1.03
2024-01-11T02:11:33.864Z,0.85
2024-01-11T02:14:02.852Z,1.01
2024-01-11T02:16:31.263Z,0.86
2024-01-11T02:18:59.728Z,0.85
2024-01-11T02:21:31.202Z,1.03
2024-01-11T02:24:07.248Z,1.04
2024-01-11T02:26:36.463Z,0.99
2024-01-11T02:32:10.145Z,0.91
2024-01-11T02:34:38.993Z,0.96
2024-01-11T02:37:07.899Z,0.89
2024-01-11T02:39:38.180Z,0.95
2024-01-11T02:42:06.861Z,0.98
2024-01-11T02:44:35.270Z,0.93
2024-01-11T02:47:03.753Z,0.93
2024-01-11T02:49:32.274Z,0.05
2024-01-11T02:52:00.642Z,0.93
2024-01-11T02:54:29.020Z,0.89
2024-01-11T02:56:58.760Z,0.83
2024-01-11T02:59:27.216Z,0.89
2024-01-11T03:01:55.758Z,0.89
2024-01-11T03:04:24.078Z,0.89
2024-01-11T03:06:52.461Z,0.89
2024-01-11T03:09:20.888Z,0.82
2024-01-11T03:11:49.682Z,0.84
2024-01-11T03:14:19.530Z,0.79
2024-01-11T03:16:48.036Z,0.77
2024-01-11T03:19:16.551Z,0.76
2024-01-11T03:21:46.421Z,0.66
2024-01-11T03:24:15.706Z,0.70
2024-01-11T03:26:44.174Z,0.71
2024-01-11T03:29:12.603Z,0.73
2024-01-11T03:31:44.353Z,0.75
2024-01-11T03:34:12.924Z,0.67
2024-01-11T03:36:41.786Z,0.70
2024-01-11T03:39:10.223Z,0.70
2024-01-11T03:41:38.890Z,0.68
2024-01-11T03:44:08.982Z,0.69
2024-01-11T03:46:37.746Z,0.74
2024-01-11T03:49:08.849Z,0.69
2024-01-11T03:51:38.500Z,0.64
2024-01-11T03:54:07.119Z,0.63
2024-01-11T03:56:35.558Z,0.65
2024-01-11T03:59:03.981Z,0.50
2024-01-11T04:01:32.395Z,0.55
2024-01-11T04:04:00.759Z,0.45
2024-01-11T04:06:30.657Z,0.55
2024-01-11T04:08:59.187Z,0.52
2024-01-11T04:11:30.334Z,0.44
2024-01-11T04:13:58.953Z,0.57
2024-01-11T04:16:27.440Z,0.55
2024-01-11T04:18:55.969Z,0.54
2024-01-11T04:21:25.481Z,0.54
2024-01-11T04:23:55.282Z,0.33
2024-01-11T04:26:24.251Z,0.28
2024-01-11T04:28:56.398Z,0.51
2024-01-11T04:31:26.485Z,0.54
2024-01-11T04:33:55.350Z,0.53
2024-01-11T04:36:23.739Z,0.54
2024-01-11T04:38:52.110Z,0.51
2024-01-11T04:41:21.996Z,0.56
2024-01-11T04:43:50.441Z,0.36
2024-01-11T04:46:19.407Z,0.61
2024-01-11T04:48:50.037Z,0.54
2024-01-11T04:51:20.535Z,0.52
2024-01-11T04:53:48.280Z,0.52
2024-01-11T04:56:18.627Z,0.44
2024-01-11T04:58:49.441Z,0.49
2024-01-11T05:01:19.113Z,0.40
2024-01-11T05:03:50.370Z,0.38
2024-01-11T05:06:19.511Z,0.45
2024-01-11T05:08:49.368Z,0.39
2024-01-11T05:11:19.618Z,0.41
2024-01-11T05:13:50.755Z,0.40
2024-01-11T05:16:22.043Z,0.43
2024-01-11T05:18:51.041Z,0.48
2024-01-11T05:21:19.771Z,0.48
2024-01-11T05:23:48.417Z,0.51
2024-01-11T05:26:18.522Z,0.54
2024-01-11T05:28:48.482Z,-0.42
2024-01-11T05:31:18.796Z,0.25
2024-01-11T05:33:48.888Z,0.56
2024-01-11T05:36:17.925Z,0.58
2024-01-11T05:38:47.806Z,0.54
2024-01-11T05:41:16.490Z,0.45
2024-01-11T05:43:45.617Z,0.49
2024-01-11T05:46:15.429Z,0.49
2024-01-11T05:48:44.482Z,0.44
2024-01-11T05:51:13.341Z,0.47
2024-01-11T05:53:41.699Z,0.37
2024-01-11T05:56:11.351Z,0.42
2024-01-11T05:58:40.156Z,0.34
2024-01-11T06:01:08.789Z,0.42
2024-01-11T06:03:39.767Z,0.44
2024-01-11T06:06:09.366Z,0.11
2024-01-11T06:08:38.285Z,0.38
2024-01-11T06:11:08.822Z,0.38
2024-01-11T06:13:37.645Z,0.33
2024-01-11T06:16:07.534Z,0.31
2024-01-11T06:18:39.004Z,0.45
2024-01-11T06:21:07.575Z,0.43
2024-01-11T06:23:36.045Z,0.41
2024-01-11T06:26:04.638Z,0.29
2024-01-11T06:28:36.252Z,0.28
2024-01-11T06:31:05.823Z,0.20
2024-01-11T06:33:38.179Z,0.21
2024-01-11T06:36:09.705Z,0.19
2024-01-11T06:38:38.315Z,0.15
2024-01-11T06:41:06.887Z,-0.08
2024-01-11T06:43:35.263Z,-0.01
2024-01-11T06:46:06.284Z,-0.74
2024-01-11T06:48:35.043Z,-0.02
2024-01-11T06:51:03.834Z,-0.14
2024-01-11T06:53:33.732Z,0.06
2024-01-11T06:56:02.211Z,0.08
2024-01-11T06:58:30.627Z,0.12
2024-01-11T07:00:59.305Z,-0.83
2024-01-11T07:03:27.962Z,0.16
2024-01-11T07:05:56.534Z,0.03
2024-01-11T07:08:25.002Z,0.16
2024-01-11T07:10:54.700Z,0.21
2024-01-11T07:13:23.054Z,0.23
2024-01-11T07:15:52.921Z,0.29
2024-01-11T07:18:21.434Z,0.28
2024-01-11T07:20:50.037Z,0.33
2024-01-11T07:23:19.130Z,0.30
2024-01-11T07:25:48.988Z,0.29
2024-01-11T07:28:27.648Z,0.30
2024-01-11T07:31:01.440Z,0.31
2024-01-11T07:33:31.492Z,0.36
2024-01-11T07:36:00.878Z,0.34
2024-01-11T07:38:30.388Z,0.37
2024-01-11T07:40:59.703Z,0.41
2024-01-11T07:43:32.360Z,0.37
2024-01-11T07:46:08.813Z,0.38
2024-01-11T07:48:37.442Z,0.24
2024-01-11T07:51:06.341Z,0.37
2024-01-11T07:53:34.819Z,0.39
2024-01-11T07:56:03.272Z,0.41
2024-01-11T07:58:33.016Z,0.28
2024-01-11T08:01:01.485Z,0.29
2024-01-11T08:03:29.948Z,0.47
2024-01-11T08:05:58.537Z,0.55
2024-01-11T08:08:27.453Z,0.84
2024-01-11T08:10:56.146Z,0.85
2024-01-11T08:13:24.554Z,1.03
2024-01-11T08:15:54.672Z,1.43
2024-01-11T08:18:23.147Z,1.67
2024-01-11T08:20:51.750Z,1.96
2024-01-11T08:23:26.087Z,2.18
2024-01-11T08:25:56.815Z,2.52
2024-01-11T08:28:25.116Z,2.69
2024-01-11T08:30:54.946Z,2.99
2024-01-11T08:33:23.479Z,3.30
2024-01-11T08:35:52.209Z,3.68
2024-01-11T08:38:20.755Z,4.01
2024-01-11T08:40:49.576Z,4.12
2024-01-11T08:43:18.230Z,4.68
2024-01-11T08:45:47.920Z,4.97
2024-01-11T08:48:18.731Z,5.07
2024-01-11T08:50:47.251Z,5.48
2024-01-11T08:53:16.862Z,5.40
2024-01-11T08:55:47.283Z,5.68
2024-01-11T08:58:16.196Z,5.75
2024-01-11T09:00:45.242Z,5.76
2024-01-11T09:03:15.103Z,6.08
2024-01-11T09:05:45.336Z,6.42
2024-01-11T09:08:13.880Z,6.69
2024-01-11T09:10:42.945Z,6.89
2024-01-11T09:13:13.249Z,6.96
2024-01-11T09:15:44.349Z,6.92
2024-01-11T09:18:13.129Z,6.93
2024-01-11T09:20:41.708Z,7.07
2024-01-11T09:23:11.517Z,7.02
2024-01-11T09:25:40.360Z,7.20
2024-01-11T09:28:08.823Z,7.35
2024-01-11T09:30:37.242Z,7.44
2024-01-11T09:33:07.610Z,7.66
2024-01-11T09:35:36.293Z,7.51
2024-01-11T09:38:05.167Z,7.66
2024-01-11T09:40:35.091Z,7.06
2024-01-11T09:43:07.198Z,7.75
2024-01-11T09:45:37.110Z,7.66
2024-01-11T09:48:07.921Z,7.75
2024-01-11T09:50:37.545Z,7.81
2024-01-11T09:53:09.508Z,7.10
2024-01-11T09:55:39.522Z,7.83
2024-01-11T09:58:09.755Z,7.80
2024-01-11T10:00:38.598Z,7.68
2024-01-11T10:03:07.439Z,7.77
2024-01-11T10:05:37.853Z,7.77
2024-01-11T10:08:07.051Z,7.73
2024-01-11T10:10:35.711Z,7.70
2024-01-11T10:13:07.271Z,7.43
2024-01-11T10:15:35.921Z,7.20
2024-01-11T10:18:05.103Z,6.90
2024-01-11T10:20:34.090Z,6.91
2024-01-11T10:23:02.851Z,6.71
2024-01-11T10:25:32.029Z,6.51
2024-01-11T10:28:01.109Z,6.39
2024-01-11T10:30:30.888Z,6.09
2024-01-11T10:33:00.742Z,6.10
2024-01-11T10:35:29.356Z,5.95
2024-01-11T10:38:00.979Z,5.81
2024-01-11T10:40:30.849Z,5.70
2024-01-11T10:43:02.762Z,5.52
2024-01-11T10:45:42.280Z,5.41
2024-01-11T10:48:16.711Z,5.36
2024-01-11T10:50:47.467Z,5.29
2024-01-11T10:53:30.734Z,5.30
2024-01-11T10:56:01.507Z,5.33
2024-01-11T10:58:30.429Z,5.20
2024-01-11T11:01:01.832Z,5.21
2024-01-11T11:03:32.737Z,5.04
2024-01-11T11:06:01.947Z,5.20
2024-01-11T11:08:30.816Z,5.01
2024-01-11T11:11:00.645Z,5.12
2024-01-11T11:13:29.864Z,5.10
2024-01-11T11:16:02.087Z,4.95
2024-01-11T11:18:32.040Z,5.01
2024-01-11T11:21:00.748Z,5.08
2024-01-11T11:23:29.244Z,5.03
2024-01-11T11:25:59.025Z,5.05
2024-01-11T11:28:28.906Z,5.06
2024-01-11T11:30:58.870Z,5.00
2024-01-11T11:33:28.898Z,5.10
2024-01-11T11:36:00.193Z,4.93
2024-01-11T11:38:30.810Z,5.04
2024-01-11T11:41:01.252Z,4.89
2024-01-11T11:43:31.403Z,5.10
2024-01-11T11:46:03.879Z,4.86
2024-01-11T11:48:56.778Z,4.88
2024-01-11T11:51:28.795Z,4.73
2024-01-11T11:53:58.205Z,5.09
2024-01-11T11:56:27.004Z,5.19
2024-01-11T11:58:56.704Z,5.17
2024-01-11T12:01:25.660Z,5.25
2024-01-11T12:03:55.925Z,5.31
2024-01-11T12:06:26.701Z,4.57
2024-01-11T12:08:57.843Z,4.66
2024-01-11T12:11:27.902Z,4.79
2024-01-11T12:13:58.911Z,4.28
2024-01-11T12:16:28.633Z,3.49
2024-01-11T12:18:59.151Z,4.41
2024-01-11T12:21:28.426Z,4.58
2024-01-11T12:24:04.410Z,4.28
2024-01-11T12:26:33.112Z,4.52
2024-01-11T12:29:01.976Z,4.37
2024-01-11T12:31:30.612Z,4.52
2024-01-11T12:34:00.598Z,4.59
2024-01-11T12:36:29.363Z,3.91
2024-01-11T12:38:57.827Z,4.15
2024-01-11T12:41:26.668Z,4.33
2024-01-11T12:43:55.658Z,4.45
2024-01-11T12:46:24.765Z,4.78
2024-01-11T12:48:53.906Z,4.80
2024-01-11T12:51:24.198Z,4.98
2024-01-11T12:53:55.011Z,4.90
2024-01-11T12:56:24.574Z,4.79
2024-01-11T12:58:53.630Z,4.94
2024-01-11T13:01:22.539Z,4.83
2024-01-11T13:03:51.564Z,5.00
2024-01-11T13:06:20.797Z,4.85
2024-01-11T13:08:51.604Z,4.70
2024-01-11T13:11:22.507Z,4.88
2024-01-11T13:13:51.128Z,4.73
2024-01-11T13:16:20.483Z,4.67
2024-01-11T13:18:49.656Z,4.91
2024-01-11T13:21:18.277Z,5.08
2024-01-11T13:23:47.119Z,5.25
2024-01-11T13:26:17.499Z,5.43
2024-01-11T13:28:45.915Z,5.59
2024-01-11T13:31:14.548Z,5.70
2024-01-11T13:33:43.039Z,5.75
2024-01-11T13:36:11.595Z,5.82
2024-01-11T13:38:40.224Z,5.92
2024-01-11T13:41:09.564Z,5.96
2024-01-11T13:43:39.694Z,6.00
2024-01-11T13:46:08.335Z,6.05
2024-01-11T13:48:36.874Z,6.10
2024-01-11T13:51:06.249Z,6.06
2024-01-11T13:53:34.849Z,6.08
2024-01-11T13:56:03.602Z,6.06
2024-01-11T13:58:32.623Z,6.20
2024-01-11T14:01:03.070Z,6.21
2024-01-11T14:03:31.561Z,6.17
2024-01-11T14:06:01.514Z,6.20
2024-01-11T14:08:31.554Z,6.26
2024-01-11T14:11:00.081Z,6.30
2024-01-11T14:13:28.504Z,6.32
2024-01-11T14:15:56.882Z,6.32
2024-01-11T14:18:27.442Z,6.33
2024-01-11T14:20:55.872Z,6.31
2024-01-11T14:23:24.348Z,6.36
2024-01-11T14:25:52.935Z,6.40
2024-01-11T14:28:22.036Z,6.38
2024-01-11T14:30:51.408Z,6.40
2024-01-11T14:33:21.460Z,6.41
2024-01-11T14:35:51.431Z,6.44
2024-01-11T14:38:19.903Z,6.44
2024-01-11T14:40:48.454Z,6.23
2024-01-11T14:43:17.333Z,6.41
2024-01-11T14:45:46.086Z,6.37
2024-01-11T14:48:14.758Z,6.38
2024-01-11T14:50:44.423Z,6.38
2024-01-11T14:53:15.356Z,6.38
2024-01-11T14:55:43.859Z,6.35
2024-01-11T14:58:12.283Z,6.32
2024-01-11T15:00:40.826Z,6.36
2024-01-11T15:03:09.593Z,6.33
2024-01-11T15:05:38.517Z,6.28
2024-01-11T15:08:07.491Z,6.27
2024-01-11T15:10:38.012Z,6.22
2024-01-11T15:13:06.615Z,6.14
2024-01-11T15:15:37.339Z,6.11
2024-01-11T15:18:07.591Z,6.05
2024-01-11T15:20:36.410Z,6.12
2024-01-11T15:23:06.625Z,6.13
2024-01-11T15:25:36.481Z,6.13
2024-01-11T15:28:05.485Z,6.17
2024-01-11T15:30:34.220Z,6.13
2024-01-11T15:33:03.303Z,6.13
2024-01-11T15:35:32.089Z,6.12
2024-01-11T15:38:00.636Z,6.19
2024-01-11T15:40:29.070Z,6.19
2024-01-11T15:42:58.934Z,6.23
2024-01-11T15:45:27.445Z,6.21
2024-01-11T15:47:55.917Z,5.62
2024-01-11T15:50:26.076Z,6.25
2024-01-11T15:52:54.558Z,6.31
2024-01-11T15:55:22.992Z,6.11
2024-01-11T15:57:53.762Z,6.17
2024-01-11T16:00:24.283Z,5.52
2024-01-11T16:02:52.879Z,6.23
2024-01-11T16:05:21.992Z,6.27
2024-01-11T16:07:50.420Z,6.28
2024-01-11T16:10:19.146Z,6.25
2024-01-11T16:12:47.607Z,6.23
2024-01-11T16:15:17.437Z,6.24
2024-01-11T16:17:48.135Z,6.16
2024-01-11T16:20:16.893Z,6.13
2024-01-11T16:22:45.236Z,6.00
2024-01-11T16:25:13.636Z,6.11
2024-01-11T16:27:42.101Z,6.07
2024-01-11T16:30:12.681Z,6.09
2024-01-11T16:32:41.249Z,6.12
2024-01-11T16:35:11.450Z,6.10
2024-01-11T16:37:39.820Z,6.13
2024-01-11T16:40:11.215Z,6.10
2024-01-11T16:42:40.316Z,6.13
2024-01-11T16:45:11.062Z,6.11
2024-01-11T16:47:39.762Z,6.13
2024-01-11T16:50:11.070Z,6.09
2024-01-11T16:52:39.957Z,6.08
2024-01-11T16:55:09.471Z,6.01
2024-01-11T16:57:38.182Z,5.88
2024-01-11T17:00:08.646Z,5.98
2024-01-11T17:02:38.628Z,6.02
2024-01-11T17:05:08.553Z,5.84
2024-01-11T17:07:38.905Z,5.81
2024-01-11T17:10:08.292Z,5.94
2024-01-11T17:12:36.766Z,5.94
2024-01-11T17:15:06.095Z,5.93
2024-01-11T17:17:34.937Z,5.95
2024-01-11T17:20:04.002Z,6.00
2024-01-11T17:22:32.405Z,6.01
2024-01-11T17:25:02.277Z,6.05
2024-01-11T17:27:30.695Z,5.96
2024-01-11T17:29:59.182Z,5.95
2024-01-11T17:32:27.858Z,5.94
2024-01-11T17:34:57.208Z,5.87
2024-01-11T17:37:26.904Z,5.82
2024-01-11T17:39:55.581Z,6.05
2024-01-11T17:42:25.331Z,6.08
2024-01-11T17:44:53.732Z,6.05
2024-01-11T17:47:22.111Z,6.07
2024-01-11T17:49:50.680Z,6.06
2024-01-11T17:52:20.250Z,6.09
2024-01-11T17:54:48.661Z,6.09
2024-01-11T17:57:17.123Z,6.05
2024-01-11T17:59:47.227Z,5.42
2024-01-11T18:02:15.757Z,6.05
2024-01-11T18:04:44.565Z,6.04
2024-01-11T18:07:13.137Z,6.04
2024-01-11T18:09:41.589Z,6.05
2024-01-11T18:12:10.138Z,6.08
2024-01-11T18:14:38.495Z,6.08
2024-01-11T18:17:09.392Z,6.06
2024-01-11T18:19:37.840Z,5.90
2024-01-11T18:22:06.649Z,5.83
2024-01-11T18:24:35.127Z,5.83
2024-01-11T18:27:07.165Z,5.99
2024-01-11T18:29:36.148Z,5.66
2024-01-11T18:32:05.396Z,5.79
2024-01-11T18:34:35.650Z,5.83
2024-01-11T18:37:04.172Z,5.83
2024-01-11T18:39:32.546Z,5.91
2024-01-11T18:42:01.940Z,5.92
2024-01-11T18:44:31.561Z,5.78
2024-01-11T18:46:59.997Z,5.83
2024-01-11T18:49:28.400Z,5.80
2024-01-11T18:51:58.210Z,5.84
2024-01-11T18:54:27.327Z,5.90
2024-01-11T18:56:55.759Z,5.99
2024-01-11T18:59:24.692Z,5.96
2024-01-11T19:01:53.259Z,5.92
2024-01-11T19:04:21.825Z,5.92
2024-01-11T19:06:51.238Z,5.92
2024-01-11T19:09:21.288Z,5.88
2024-01-11T19:11:51.702Z,5.95
2024-01-11T19:14:20.142Z,5.90
2024-01-11T19:16:48.718Z,5.90
2024-01-11T19:19:17.227Z,5.99
2024-01-11T19:21:45.732Z,6.05
2024-01-11T19:24:14.295Z,6.02
2024-01-11T19:26:49.007Z,6.18
2024-01-11T19:29:18.152Z,6.16
2024-01-11T19:31:47.209Z,6.19
2024-01-11T19:34:15.826Z,6.14
2024-01-11T19:36:44.312Z,6.09
2024-01-11T19:39:13.781Z,6.16
2024-01-11T19:41:43.735Z,6.09
2024-01-11T19:44:12.344Z,6.12
2024-01-11T19:46:42.266Z,6.10
2024-01-11T19:49:11.533Z,6.11
2024-01-11T19:51:40.456Z,6.09
2024-01-11T19:54:11.806Z,6.12
2024-01-11T19:56:40.193Z,6.14
2024-01-11T19:59:10.149Z,6.30
2024-01-11T20:01:38.639Z,6.35
2024-01-11T20:04:07.566Z,6.44
2024-01-11T20:06:36.020Z,6.52
2024-01-11T20:09:05.320Z,6.63
2024-01-11T20:11:33.991Z,6.80
2024-01-11T20:14:02.943Z,6.94
2024-01-11T20:16:32.775Z,7.04
2024-01-11T20:19:01.465Z,7.16
2024-01-11T20:21:30.023Z,7.26
2024-01-11T20:23:58.389Z,7.38
2024-01-11T20:26:28.645Z,7.44
2024-01-11T20:28:58.183Z,7.55
2024-01-11T20:31:27.369Z,7.62
2024-01-11T20:33:59.779Z,7.63
2024-01-11T20:36:28.374Z,7.73
2024-01-11T20:38:57.459Z,7.75
2024-01-11T20:41:25.986Z,7.74
2024-01-11T20:43:54.854Z,7.74
2024-01-11T20:46:24.157Z,7.81
2024-01-11T20:48:52.938Z,7.85
2024-01-11T20:51:22.782Z,7.81
2024-01-11T20:53:56.155Z,7.77
2024-01-11T20:56:24.995Z,7.90
2024-01-11T20:58:53.923Z,7.79
2024-01-11T21:01:22.311Z,7.83
2024-01-11T21:03:51.059Z,7.82
2024-01-11T21:06:19.765Z,7.88
2024-01-11T21:08:49.638Z,7.93
2024-01-11T21:11:21.844Z,6.23
2024-01-11T21:13:50.516Z,7.80
2024-01-11T21:16:18.920Z,7.87
2024-01-11T21:18:49.884Z,7.86
2024-01-11T21:21:19.032Z,7.93
2024-01-11T21:23:47.671Z,7.91
2024-01-11T21:26:17.493Z,7.94
2024-01-11T21:28:50.951Z,7.93
2024-01-11T21:31:19.424Z,7.97
2024-01-11T21:33:48.078Z,7.97
2024-01-11T21:36:17.646Z,7.96
2024-01-11T21:38:46.464Z,8.04
2024-01-11T21:41:16.392Z,8.08
2024-01-11T21:43:44.774Z,8.06
2024-01-11T21:46:13.780Z,8.00
2024-01-11T21:48:42.628Z,7.99
2024-01-11T21:51:12.838Z,8.10
2024-01-11T21:53:41.714Z,8.07
2024-01-11T21:56:09.360Z,8.15
2024-01-11T21:58:39.337Z,8.19
2024-01-11T22:01:08.431Z,8.14
2024-01-11T22:03:37.087Z,8.15
2024-01-11T22:06:06.787Z,8.15
2024-01-11T22:08:35.319Z,8.04
2024-01-11T22:11:03.852Z,8.09
2024-01-11T22:13:32.189Z,8.08
2024-01-11T22:16:02.947Z,8.10
2024-01-11T22:18:31.545Z,7.93
2024-01-11T22:21:02.520Z,7.93
2024-01-11T22:23:31.436Z,7.96
2024-01-11T22:25:59.930Z,7.93
2024-01-11T22:28:29.336Z,7.63
2024-01-11T22:30:57.762Z,7.80
2024-01-11T22:33:28.212Z,7.84
2024-01-11T22:35:57.243Z,7.87
2024-01-11T22:38:26.184Z,7.85
2024-01-11T22:40:54.832Z,7.90
2024-01-11T22:43:23.184Z,7.92
2024-01-11T22:45:51.601Z,7.88
2024-01-11T22:48:20.786Z,7.19
2024-01-11T22:50:50.711Z,7.97
2024-01-11T22:53:19.279Z,7.94
2024-01-11T22:55:47.776Z,7.89
2024-01-11T22:58:16.908Z,7.92
2024-01-11T23:00:46.038Z,7.93
2024-01-11T23:03:14.573Z,7.92
2024-01-11T23:05:43.127Z,7.99
2024-01-11T23:08:12.923Z,7.96
2024-01-11T23:10:41.349Z,7.89
2024-01-11T23:13:09.876Z,7.86
2024-01-11T23:15:38.313Z,7.88
2024-01-11T23:18:07.550Z,7.12
2024-01-11T23:20:36.085Z,7.84
2024-01-11T23:23:04.818Z,7.86
2024-01-11T23:25:34.748Z,7.86
2024-01-11T23:28:04.448Z,7.93
2024-01-11T23:30:35.407Z,7.87
2024-01-11T23:33:03.998Z,7.92
2024-01-11T23:35:32.400Z,7.93
2024-01-11T23:38:00.884Z,7.96
2024-01-11T23:40:29.290Z,7.92
2024-01-11T23:42:59.146Z,8.00
2024-01-11T23:45:27.539Z,7.87
2024-01-11T23:47:55.974Z,7.95
2024-01-11T23:50:24.535Z,7.95
2024-01-11T23:52:52.909Z,7.92
2024-01-11T23:55:21.392Z,7.93
2024-01-11T23:57:49.842Z,8.00
